Erving — 2EDZ5 — position and weather

sailwx.info

Track history (hours):
 
Tides and Currents Weather Stations Pressure Air Temp Water Temp Dewpoint Dewpoint Depression Visibility Wind Speed Wind Dir Waves Ship Positions

Erving

Last reported at 2017-Dec-16 12:19 UTC. Time now 2017-Dec-16 12:41 UTC.
Position N 32°08' W 081°09'.

Length 366 m; draft 12.2 m.

Type: Ship (hazmat cat D). MMSI: 235084298.

Date/timePositionNaut miles runAvg speedWind from/ knotsBaromVisibWave heightAir tempDewpointWater temp
2017-Dec-16 12:19N 32°08' W 081°09'0 0.0
2017-Dec-16 11:49N 32°08' W 081°09'0 0.0
2017-Dec-16 11:25N 32°08' W 081°09'0 0.0
2017-Dec-16 10:55N 32°08' W 081°09'0 0.0
2017-Dec-16 10:25N 32°08' W 081°09'0 0.0
2017-Dec-16 09:49N 32°08' W 081°09'0 0.0
2017-Dec-16 09:19N 32°08' W 081°09'0 0.0
2017-Dec-16 08:55N 32°08' W 081°09'0 0.0
2017-Dec-16 08:25N 32°08' W 081°09'0 0.0
2017-Dec-16 07:55N 32°08' W 081°09'0 0.0
2017-Dec-16 07:25N 32°08' W 081°09'0 0.0
2017-Dec-16 06:55N 32°08' W 081°09'0 0.0
2017-Dec-16 06:19N 32°08' W 081°09'0 0.0
2017-Dec-16 05:49N 32°08' W 081°09'0 0.0
2017-Dec-16 05:25N 32°08' W 081°09'0 0.0
2017-Dec-16 04:59N 32°08' W 081°09'0 0.0
2017-Dec-16 04:13N 32°08' W 081°09'0 0.0
2017-Dec-16 03:43N 32°08' W 081°09'0 0.0
2017-Dec-16 03:31N 32°08' W 081°09'0 0.0
2017-Dec-16 02:49N 32°08' W 081°09'0 0.0
2017-Dec-16 02:31N 32°08' W 081°09'0 0.0
2017-Dec-16 02:00N 32°08' W 081°09'0 0.0
2017-Dec-16 01:31N 32°08' W 081°09'0 0.0
2017-Dec-16 01:01N 32°08' W 081°09'0 0.0
2017-Dec-16 00:31N 32°08' W 081°09'0 0.0
2017-Dec-15 23:55N 32°08' W 081°09'0 0.0
2017-Dec-15 23:18N 32°08' W 081°09'0 0.0
2017-Dec-15 23:00N 32°08' W 081°09'0 0.0
2017-Dec-15 22:31N 32°08' W 081°09'0 0.0
2017-Dec-15 21:55N 32°08' W 081°09'0 0.0
2017-Dec-15 21:24N 32°08' W 081°09'0 0.0
2017-Dec-15 21:01N 32°08' W 081°09'0 0.0
2017-Dec-15 20:31N 32°08' W 081°09'0 0.0
2017-Dec-15 20:00N 32°08' W 081°09'0 0.0
2017-Dec-15 19:24N 32°08' W 081°09'0 0.0
2017-Dec-15 19:01N 32°08' W 081°09'0 0.0
2017-Dec-15 18:24N 32°08' W 081°09'0 0.0
2017-Dec-15 18:01N 32°08' W 081°09'0 0.0
2017-Dec-15 17:31N 32°08' W 081°09'0 0.0
2017-Dec-15 17:01N 32°08' W 081°09'0 0.0
2017-Dec-15 16:31N 32°08' W 081°09'0 0.0
2017-Dec-15 16:01N 32°08' W 081°09'0 0.0
2017-Dec-15 15:30N 32°08' W 081°09'0 0.0
2017-Dec-15 15:00N 32°08' W 081°09'0 0.0
2017-Dec-15 14:30N 32°08' W 081°09'0 0.0
2017-Dec-15 13:55N 32°08' W 081°09'0 0.0
2017-Dec-15 13:31N 32°08' W 081°09'0 0.0
2017-Dec-15 13:00N 32°08' W 081°09'0 0.0
2017-Dec-15 12:31N 32°08' W 081°09'0 0.0
2017-Dec-15 11:43N 32°08' W 081°09'0 0.1
2017-Dec-15 11:30N 32°08' W 081°09'0 0.0
2017-Dec-15 10:49N 32°08' W 081°09'0 0.1
2017-Dec-15 10:31N 32°08' W 081°09'0 0.0
2017-Dec-15 10:00N 32°08' W 081°09'0 0.0
2017-Dec-15 09:31N 32°08' W 081°09'0 0.0
2017-Dec-15 09:00N 32°08' W 081°09'0 0.0
2017-Dec-15 08:30N 32°08' W 081°09'0 0.0
2017-Dec-15 07:54N 32°08' W 081°09'0 0.0
2017-Dec-15 07:30N 32°08' W 081°09'0 0.0
2017-Dec-15 07:00N 32°08' W 081°09'0 0.0
2017-Dec-15 06:17N 32°08' W 081°09'0 0.1
2017-Dec-15 05:59N 32°08' W 081°09'0 0.0
2017-Dec-15 05:29N 32°08' W 081°09'0 0.0
2017-Dec-15 04:59N 32°08' W 081°09'0 0.0
2017-Dec-15 04:23N 32°08' W 081°09'0 0.0
2017-Dec-15 03:53N 32°08' W 081°09'0 0.0
2017-Dec-15 02:29N 32°08' W 081°09'0 0.0
2017-Dec-15 00:47N 32°08' W 081°09'0 0.0
2017-Dec-15 00:29N 32°08' W 081°09'31 5.1
2017-Dec-14 18:27N 31°56' W 080°35'377 9.3
2017-Dec-13 02:07N 36°50' W 075°49'2 9.9
2017-Dec-13 01:57N 36°51' W 075°51'4 9.7
2017-Dec-13 01:30N 36°54' W 075°55'810.7
2017-Dec-13 00:44N 36°58' W 076°04'415.4
2017-Dec-13 00:30N 36°59' W 076°08'714.3
2017-Dec-13 00:00N 37°00' W 076°17'5 9.9
2017-Dec-12 23:29N 36°56' W 076°20'3 6.9
2017-Dec-12 23:00N 36°53' W 076°20'0 0.7
2017-Dec-12 22:25N 36°52' W 076°21'0 0.0
2017-Dec-12 21:58N 36°52' W 076°21'0 0.0
2017-Dec-12 21:28N 36°52' W 076°21'0 0.0
2017-Dec-12 20:58N 36°52' W 076°21'0 0.0
2017-Dec-12 19:04N 36°52' W 076°21'0 0.0
2017-Dec-12 18:40N 36°52' W 076°21'0 0.0
2017-Dec-12 18:28N 36°52' W 076°21'0 0.0
2017-Dec-12 17:58N 36°52' W 076°21'0 0.0
2017-Dec-12 17:28N 36°52' W 076°21'0 0.0
2017-Dec-12 16:55N 36°52' W 076°21'0 0.0
2017-Dec-12 16:25N 36°52' W 076°21'0 0.0
2017-Dec-12 15:58N 36°52' W 076°21'0 0.0
2017-Dec-12 15:28N 36°52' W 076°21'0 0.0
2017-Dec-12 14:55N 36°52' W 076°21'0 0.0
2017-Dec-12 14:25N 36°52' W 076°21'0 0.0
2017-Dec-12 13:58N 36°52' W 076°21'0 0.0
2017-Dec-12 13:28N 36°52' W 076°21'0 0.0
2017-Dec-12 12:58N 36°52' W 076°21'0 0.0
2017-Dec-12 12:28N 36°52' W 076°21'0 0.0
2017-Dec-12 11:58N 36°52' W 076°21'0 0.0
2017-Dec-12 11:28N 36°52' W 076°21'0 0.0
2017-Dec-12 10:52N 36°52' W 076°21'0 0.0
2017-Dec-12 10:28N 36°52' W 076°21'0 0.0
2017-Dec-12 09:58N 36°52' W 076°21'0 0.0
2017-Dec-12 09:28N 36°52' W 076°21'0 0.0
2017-Dec-12 08:55N 36°52' W 076°21'0 0.0
2017-Dec-12 08:28N 36°52' W 076°21'0 0.0
2017-Dec-12 07:58N 36°52' W 076°21'0 0.0
2017-Dec-12 07:28N 36°52' W 076°21'0 0.0
2017-Dec-12 06:58N 36°52' W 076°21'0 0.0
2017-Dec-12 06:28N 36°52' W 076°21'0 0.0
2017-Dec-12 05:58N 36°52' W 076°21'0 0.0
2017-Dec-12 05:28N 36°52' W 076°21'0 0.0
2017-Dec-12 04:55N 36°52' W 076°21'0 0.0
2017-Dec-12 04:25N 36°52' W 076°21'0 0.0
2017-Dec-12 03:58N 36°52' W 076°21'0 0.0
2017-Dec-12 03:25N 36°52' W 076°21'0 0.0
2017-Dec-12 02:58N 36°52' W 076°21'0 0.0
2017-Dec-12 02:25N 36°52' W 076°21'0 0.0
2017-Dec-12 01:55N 36°52' W 076°21'0 0.0
2017-Dec-12 01:28N 36°52' W 076°21'0 0.0
2017-Dec-12 00:58N 36°52' W 076°21'0 0.0
2017-Dec-12 00:28N 36°52' W 076°21'0 0.0
2017-Dec-11 23:52N 36°52' W 076°21'0 0.0
2017-Dec-11 23:04N 36°52' W 076°21'0 0.0
2017-Dec-11 22:58N 36°52' W 076°21'0 0.0
2017-Dec-11 22:28N 36°52' W 076°21'0 0.0
2017-Dec-11 21:58N 36°52' W 076°21'0 0.0
2017-Dec-11 21:28N 36°52' W 076°21'0 0.0
2017-Dec-11 21:00N 36°52' W 076°21'1 1.3
2017-Dec-11 20:30N 36°53' W 076°20'3 5.7
2017-Dec-11 20:00N 36°56' W 076°20'4 7.8
2017-Dec-11 19:30N 36°59' W 076°19'511.0
2017-Dec-11 19:00N 36°60' W 076°12'714.2
2017-Dec-11 18:30N 36°58' W 076°04'611.3
2017-Dec-11 18:01N 36°56' W 075°57'4 7.6
2017-Dec-11 17:31N 36°54' W 075°53'18311.6
2017-Dec-11 01:46N 39°32' W 073°57'5012.5
2017-Dec-10 21:47N 40°22' W 073°49'411.1
2017-Dec-10 21:27N 40°26' W 073°49'4 9.9
2017-Dec-10 21:00N 40°29' W 073°53'714.6
2017-Dec-10 20:30N 40°32' W 074°01'612.4
2017-Dec-10 20:01N 40°38' W 074°03'3 5.8
2017-Dec-10 19:31N 40°39' W 074°07'1 2.8
2017-Dec-10 19:01N 40°39' W 074°09'1 2.8
2017-Dec-10 18:30N 40°41' W 074°09'0 0.3
2017-Dec-10 17:59N 40°41' W 074°09'0 0.0
2017-Dec-10 17:26N 40°41' W 074°09'0 0.0
2017-Dec-10 16:56N 40°41' W 074°09'0 0.0
2017-Dec-10 16:29N 40°41' W 074°09'0 0.0
2017-Dec-10 15:59N 40°41' W 074°09'0 0.0
2017-Dec-10 15:26N 40°41' W 074°09'0 0.0
2017-Dec-10 14:53N 40°41' W 074°09'0 0.0
2017-Dec-10 14:29N 40°41' W 074°09'0 0.0
2017-Dec-10 13:59N 40°41' W 074°09'0 0.0
2017-Dec-10 13:29N 40°41' W 074°09'0 0.0
2017-Dec-10 12:59N 40°41' W 074°09'0 0.0
2017-Dec-10 12:29N 40°41' W 074°09'0 0.0
2017-Dec-10 11:59N 40°41' W 074°09'0 0.0
2017-Dec-10 11:26N 40°41' W 074°09'0 0.0
2017-Dec-10 10:59N 40°41' W 074°09'0 0.0
2017-Dec-10 10:29N 40°41' W 074°09'0 0.0
2017-Dec-10 09:56N 40°41' W 074°09'0 0.0
2017-Dec-10 09:23N 40°41' W 074°09'0 0.0
2017-Dec-10 08:59N 40°41' W 074°09'0 0.0
2017-Dec-10 08:29N 40°41' W 074°09'0 0.0
2017-Dec-10 07:53N 40°41' W 074°09'0 0.0
2017-Dec-10 07:29N 40°41' W 074°09'0 0.0
2017-Dec-10 06:56N 40°41' W 074°09'0 0.0
2017-Dec-10 06:23N 40°41' W 074°09'0 0.0
2017-Dec-10 05:59N 40°41' W 074°09'0 0.0
2017-Dec-10 05:29N 40°41' W 074°09'0 0.0
2017-Dec-10 04:56N 40°41' W 074°09'0 0.0
2017-Dec-10 04:29N 40°41' W 074°09'0 0.0
2017-Dec-10 03:59N 40°41' W 074°09'0 0.0
2017-Dec-10 03:29N 40°41' W 074°09'0 0.0
2017-Dec-10 02:56N 40°41' W 074°09'0 0.0
2017-Dec-10 02:23N 40°41' W 074°09'0 0.0
2017-Dec-10 01:59N 40°41' W 074°09'0 0.0
2017-Dec-10 01:26N 40°41' W 074°09'0 0.0
2017-Dec-10 00:56N 40°41' W 074°09'0 0.0
2017-Dec-10 00:20N 40°41' W 074°09'0 0.0
2017-Dec-09 23:56N 40°41' W 074°09'0 0.0
2017-Dec-09 23:29N 40°41' W 074°09'0 0.0
2017-Dec-09 22:59N 40°41' W 074°09'0 0.0
2017-Dec-09 22:29N 40°41' W 074°09'0 0.0
2017-Dec-09 21:50N 40°41' W 074°09'0 0.0
2017-Dec-09 21:29N 40°41' W 074°09'0 0.0
2017-Dec-09 20:59N 40°41' W 074°09'0 0.0
2017-Dec-09 20:29N 40°41' W 074°09'0 0.0
2017-Dec-09 19:59N 40°41' W 074°09'0 0.0
2017-Dec-09 19:23N 40°41' W 074°09'0 0.0
2017-Dec-09 18:59N 40°41' W 074°09'0 0.0
2017-Dec-09 18:29N 40°41' W 074°09'0 0.0
2017-Dec-09 17:59N 40°41' W 074°09'0 0.0
2017-Dec-09 17:23N 40°41' W 074°09'0 0.0
2017-Dec-09 16:59N 40°41' W 074°09'0 0.0
2017-Dec-09 16:29N 40°41' W 074°09'0 0.0
2017-Dec-09 15:59N 40°41' W 074°09'0 0.0
2017-Dec-09 15:29N 40°41' W 074°09'0 0.0
2017-Dec-09 14:59N 40°41' W 074°09'0 0.0
2017-Dec-09 14:23N 40°41' W 074°09'0 0.0
2017-Dec-09 14:00N 40°41' W 074°09'0 0.0
2017-Dec-09 13:28N 40°41' W 074°09'0 0.0
2017-Dec-09 12:58N 40°41' W 074°09'0 0.0
2017-Dec-09 12:25N 40°41' W 074°09'0 0.0
2017-Dec-09 11:55N 40°41' W 074°09'0 0.0
2017-Dec-09 11:28N 40°41' W 074°09'0 0.0
2017-Dec-09 10:58N 40°41' W 074°09'0 0.0
2017-Dec-09 10:28N 40°41' W 074°09'0 0.0
2017-Dec-09 09:58N 40°41' W 074°09'0 0.0
2017-Dec-09 09:28N 40°41' W 074°09'0 0.0
2017-Dec-09 08:58N 40°41' W 074°09'0 0.0
2017-Dec-09 08:28N 40°41' W 074°09'0 0.0
2017-Dec-09 07:58N 40°41' W 074°09'0 0.0
2017-Dec-09 07:28N 40°41' W 074°09'0 0.0
2017-Dec-09 06:58N 40°41' W 074°09'0 0.4
2017-Dec-09 06:30N 40°41' W 074°08'2 4.0
2017-Dec-09 06:00N 40°39' W 074°09'2 4.4
2017-Dec-09 05:31N 40°39' W 074°06'3 5.6
2017-Dec-09 05:00N 40°37' W 074°03'3 6.7
2017-Dec-09 04:30N 40°34' W 074°02'4 6.7
2017-Dec-09 03:58N 40°31' W 073°59'5 9.8
2017-Dec-09 03:29N 40°29' W 073°54'5 9.4
2017-Dec-09 03:00N 40°27' W 073°48'  
Track history (hours):
 
Tides and Currents Weather Stations Pressure Air Temp Water Temp Dewpoint Dewpoint Depression Visibility Wind Speed Wind Dir Waves Ship Positions

Erving

Last reported at 2017-Dec-16 12:19 UTC. Time now 2017-Dec-16 12:41 UTC.
Position N 32°08' W 081°09'.

Length 366 m; draft 12.2 m.

Type: Ship (hazmat cat D). MMSI: 235084298.

Date/timePositionNaut miles runAvg speedWind from/ knotsBaromVisibWave heightAir tempDewpointWater temp
2017-Dec-16 12:19N 32°08' W 081°09'0 0.0
2017-Dec-16 11:49N 32°08' W 081°09'0 0.0
2017-Dec-16 11:25N 32°08' W 081°09'0 0.0
2017-Dec-16 10:55N 32°08' W 081°09'0 0.0
2017-Dec-16 10:25N 32°08' W 081°09'0 0.0
2017-Dec-16 09:49N 32°08' W 081°09'0 0.0
2017-Dec-16 09:19N 32°08' W 081°09'0 0.0
2017-Dec-16 08:55N 32°08' W 081°09'0 0.0
2017-Dec-16 08:25N 32°08' W 081°09'0 0.0
2017-Dec-16 07:55N 32°08' W 081°09'0 0.0
2017-Dec-16 07:25N 32°08' W 081°09'0 0.0
2017-Dec-16 06:55N 32°08' W 081°09'0 0.0
2017-Dec-16 06:19N 32°08' W 081°09'0 0.0
2017-Dec-16 05:49N 32°08' W 081°09'0 0.0
2017-Dec-16 05:25N 32°08' W 081°09'0 0.0
2017-Dec-16 04:59N 32°08' W 081°09'0 0.0
2017-Dec-16 04:13N 32°08' W 081°09'0 0.0
2017-Dec-16 03:43N 32°08' W 081°09'0 0.0
2017-Dec-16 03:31N 32°08' W 081°09'0 0.0
2017-Dec-16 02:49N 32°08' W 081°09'0 0.0
2017-Dec-16 02:31N 32°08' W 081°09'0 0.0
2017-Dec-16 02:00N 32°08' W 081°09'0 0.0
2017-Dec-16 01:31N 32°08' W 081°09'0 0.0
2017-Dec-16 01:01N 32°08' W 081°09'0 0.0
2017-Dec-16 00:31N 32°08' W 081°09'0 0.0
2017-Dec-15 23:55N 32°08' W 081°09'0 0.0
2017-Dec-15 23:18N 32°08' W 081°09'0 0.0
2017-Dec-15 23:00N 32°08' W 081°09'0 0.0
2017-Dec-15 22:31N 32°08' W 081°09'0 0.0
2017-Dec-15 21:55N 32°08' W 081°09'0 0.0
2017-Dec-15 21:24N 32°08' W 081°09'0 0.0
2017-Dec-15 21:01N 32°08' W 081°09'0 0.0
2017-Dec-15 20:31N 32°08' W 081°09'0 0.0
2017-Dec-15 20:00N 32°08' W 081°09'0 0.0
2017-Dec-15 19:24N 32°08' W 081°09'0 0.0
2017-Dec-15 19:01N 32°08' W 081°09'0 0.0
2017-Dec-15 18:24N 32°08' W 081°09'0 0.0
2017-Dec-15 18:01N 32°08' W 081°09'0 0.0
2017-Dec-15 17:31N 32°08' W 081°09'0 0.0
2017-Dec-15 17:01N 32°08' W 081°09'0 0.0
2017-Dec-15 16:31N 32°08' W 081°09'0 0.0
2017-Dec-15 16:01N 32°08' W 081°09'0 0.0
2017-Dec-15 15:30N 32°08' W 081°09'0 0.0
2017-Dec-15 15:00N 32°08' W 081°09'0 0.0
2017-Dec-15 14:30N 32°08' W 081°09'0 0.0
2017-Dec-15 13:55N 32°08' W 081°09'0 0.0
2017-Dec-15 13:31N 32°08' W 081°09'0 0.0
2017-Dec-15 13:00N 32°08' W 081°09'0 0.0
2017-Dec-15 12:31N 32°08' W 081°09'0 0.0
2017-Dec-15 11:43N 32°08' W 081°09'0 0.1
2017-Dec-15 11:30N 32°08' W 081°09'0 0.0
2017-Dec-15 10:49N 32°08' W 081°09'0 0.1
2017-Dec-15 10:31N 32°08' W 081°09'0 0.0
2017-Dec-15 10:00N 32°08' W 081°09'0 0.0
2017-Dec-15 09:31N 32°08' W 081°09'0 0.0
2017-Dec-15 09:00N 32°08' W 081°09'0 0.0
2017-Dec-15 08:30N 32°08' W 081°09'0 0.0
2017-Dec-15 07:54N 32°08' W 081°09'0 0.0
2017-Dec-15 07:30N 32°08' W 081°09'0 0.0
2017-Dec-15 07:00N 32°08' W 081°09'0 0.0
2017-Dec-15 06:17N 32°08' W 081°09'0 0.1
2017-Dec-15 05:59N 32°08' W 081°09'0 0.0
2017-Dec-15 05:29N 32°08' W 081°09'0 0.0
2017-Dec-15 04:59N 32°08' W 081°09'0 0.0
2017-Dec-15 04:23N 32°08' W 081°09'0 0.0
2017-Dec-15 03:53N 32°08' W 081°09'0 0.0
2017-Dec-15 02:29N 32°08' W 081°09'0 0.0
2017-Dec-15 00:47N 32°08' W 081°09'0 0.0
2017-Dec-15 00:29N 32°08' W 081°09'31 5.1
2017-Dec-14 18:27N 31°56' W 080°35'377 9.3
2017-Dec-13 02:07N 36°50' W 075°49'2 9.9
2017-Dec-13 01:57N 36°51' W 075°51'4 9.7
2017-Dec-13 01:30N 36°54' W 075°55'810.7
2017-Dec-13 00:44N 36°58' W 076°04'415.4
2017-Dec-13 00:30N 36°59' W 076°08'714.3
2017-Dec-13 00:00N 37°00' W 076°17'5 9.9
2017-Dec-12 23:29N 36°56' W 076°20'3 6.9
2017-Dec-12 23:00N 36°53' W 076°20'0 0.7
2017-Dec-12 22:25N 36°52' W 076°21'0 0.0
2017-Dec-12 21:58N 36°52' W 076°21'0 0.0
2017-Dec-12 21:28N 36°52' W 076°21'0 0.0
2017-Dec-12 20:58N 36°52' W 076°21'0 0.0
2017-Dec-12 19:04N 36°52' W 076°21'0 0.0
2017-Dec-12 18:40N 36°52' W 076°21'0 0.0
2017-Dec-12 18:28N 36°52' W 076°21'0 0.0
2017-Dec-12 17:58N 36°52' W 076°21'0 0.0
2017-Dec-12 17:28N 36°52' W 076°21'0 0.0
2017-Dec-12 16:55N 36°52' W 076°21'0 0.0
2017-Dec-12 16:25N 36°52' W 076°21'0 0.0
2017-Dec-12 15:58N 36°52' W 076°21'0 0.0
2017-Dec-12 15:28N 36°52' W 076°21'0 0.0
2017-Dec-12 14:55N 36°52' W 076°21'0 0.0
2017-Dec-12 14:25N 36°52' W 076°21'0 0.0
2017-Dec-12 13:58N 36°52' W 076°21'0 0.0
2017-Dec-12 13:28N 36°52' W 076°21'0 0.0
2017-Dec-12 12:58N 36°52' W 076°21'0 0.0
2017-Dec-12 12:28N 36°52' W 076°21'0 0.0
2017-Dec-12 11:58N 36°52' W 076°21'0 0.0
2017-Dec-12 11:28N 36°52' W 076°21'0 0.0
2017-Dec-12 10:52N 36°52' W 076°21'0 0.0
2017-Dec-12 10:28N 36°52' W 076°21'0 0.0
2017-Dec-12 09:58N 36°52' W 076°21'0 0.0
2017-Dec-12 09:28N 36°52' W 076°21'0 0.0
2017-Dec-12 08:55N 36°52' W 076°21'0 0.0
2017-Dec-12 08:28N 36°52' W 076°21'0 0.0
2017-Dec-12 07:58N 36°52' W 076°21'0 0.0
2017-Dec-12 07:28N 36°52' W 076°21'0 0.0
2017-Dec-12 06:58N 36°52' W 076°21'0 0.0
2017-Dec-12 06:28N 36°52' W 076°21'0 0.0
2017-Dec-12 05:58N 36°52' W 076°21'0 0.0
2017-Dec-12 05:28N 36°52' W 076°21'0 0.0
2017-Dec-12 04:55N 36°52' W 076°21'0 0.0
2017-Dec-12 04:25N 36°52' W 076°21'0 0.0
2017-Dec-12 03:58N 36°52' W 076°21'0 0.0
2017-Dec-12 03:25N 36°52' W 076°21'0 0.0
2017-Dec-12 02:58N 36°52' W 076°21'0 0.0
2017-Dec-12 02:25N 36°52' W 076°21'0 0.0
2017-Dec-12 01:55N 36°52' W 076°21'0 0.0
2017-Dec-12 01:28N 36°52' W 076°21'0 0.0
2017-Dec-12 00:58N 36°52' W 076°21'0 0.0
2017-Dec-12 00:28N 36°52' W 076°21'0 0.0
2017-Dec-11 23:52N 36°52' W 076°21'0 0.0
2017-Dec-11 23:04N 36°52' W 076°21'0 0.0
2017-Dec-11 22:58N 36°52' W 076°21'0 0.0
2017-Dec-11 22:28N 36°52' W 076°21'0 0.0
2017-Dec-11 21:58N 36°52' W 076°21'0 0.0
2017-Dec-11 21:28N 36°52' W 076°21'0 0.0
2017-Dec-11 21:00N 36°52' W 076°21'1 1.3
2017-Dec-11 20:30N 36°53' W 076°20'3 5.7
2017-Dec-11 20:00N 36°56' W 076°20'4 7.8
2017-Dec-11 19:30N 36°59' W 076°19'511.0
2017-Dec-11 19:00N 36°60' W 076°12'714.2
2017-Dec-11 18:30N 36°58' W 076°04'611.3
2017-Dec-11 18:01N 36°56' W 075°57'4 7.6
2017-Dec-11 17:31N 36°54' W 075°53'18311.6
2017-Dec-11 01:46N 39°32' W 073°57'5012.5
2017-Dec-10 21:47N 40°22' W 073°49'411.1
2017-Dec-10 21:27N 40°26' W 073°49'4 9.9
2017-Dec-10 21:00N 40°29' W 073°53'714.6
2017-Dec-10 20:30N 40°32' W 074°01'612.4
2017-Dec-10 20:01N 40°38' W 074°03'3 5.8
2017-Dec-10 19:31N 40°39' W 074°07'1 2.8
2017-Dec-10 19:01N 40°39' W 074°09'1 2.8
2017-Dec-10 18:30N 40°41' W 074°09'0 0.3
2017-Dec-10 17:59N 40°41' W 074°09'0 0.0
2017-Dec-10 17:26N 40°41' W 074°09'0 0.0
2017-Dec-10 16:56N 40°41' W 074°09'0 0.0
2017-Dec-10 16:29N 40°41' W 074°09'0 0.0
2017-Dec-10 15:59N 40°41' W 074°09'0 0.0
2017-Dec-10 15:26N 40°41' W 074°09'0 0.0
2017-Dec-10 14:53N 40°41' W 074°09'0 0.0
2017-Dec-10 14:29N 40°41' W 074°09'0 0.0
2017-Dec-10 13:59N 40°41' W 074°09'0 0.0
2017-Dec-10 13:29N 40°41' W 074°09'0 0.0
2017-Dec-10 12:59N 40°41' W 074°09'0 0.0
2017-Dec-10 12:29N 40°41' W 074°09'0 0.0
2017-Dec-10 11:59N 40°41' W 074°09'0 0.0
2017-Dec-10 11:26N 40°41' W 074°09'0 0.0
2017-Dec-10 10:59N 40°41' W 074°09'0 0.0
2017-Dec-10 10:29N 40°41' W 074°09'0 0.0
2017-Dec-10 09:56N 40°41' W 074°09'0 0.0
2017-Dec-10 09:23N 40°41' W 074°09'0 0.0
2017-Dec-10 08:59N 40°41' W 074°09'0 0.0
2017-Dec-10 08:29N 40°41' W 074°09'0 0.0
2017-Dec-10 07:53N 40°41' W 074°09'0 0.0
2017-Dec-10 07:29N 40°41' W 074°09'0 0.0
2017-Dec-10 06:56N 40°41' W 074°09'0 0.0
2017-Dec-10 06:23N 40°41' W 074°09'0 0.0
2017-Dec-10 05:59N 40°41' W 074°09'0 0.0
2017-Dec-10 05:29N 40°41' W 074°09'0 0.0
2017-Dec-10 04:56N 40°41' W 074°09'0 0.0
2017-Dec-10 04:29N 40°41' W 074°09'0 0.0
2017-Dec-10 03:59N 40°41' W 074°09'0 0.0
2017-Dec-10 03:29N 40°41' W 074°09'0 0.0
2017-Dec-10 02:56N 40°41' W 074°09'0 0.0
2017-Dec-10 02:23N 40°41' W 074°09'0 0.0
2017-Dec-10 01:59N 40°41' W 074°09'0 0.0
2017-Dec-10 01:26N 40°41' W 074°09'0 0.0
2017-Dec-10 00:56N 40°41' W 074°09'0 0.0
2017-Dec-10 00:20N 40°41' W 074°09'0 0.0
2017-Dec-09 23:56N 40°41' W 074°09'0 0.0
2017-Dec-09 23:29N 40°41' W 074°09'0 0.0
2017-Dec-09 22:59N 40°41' W 074°09'0 0.0
2017-Dec-09 22:29N 40°41' W 074°09'0 0.0
2017-Dec-09 21:50N 40°41' W 074°09'0 0.0
2017-Dec-09 21:29N 40°41' W 074°09'0 0.0
2017-Dec-09 20:59N 40°41' W 074°09'0 0.0
2017-Dec-09 20:29N 40°41' W 074°09'0 0.0
2017-Dec-09 19:59N 40°41' W 074°09'0 0.0
2017-Dec-09 19:23N 40°41' W 074°09'0 0.0
2017-Dec-09 18:59N 40°41' W 074°09'0 0.0
2017-Dec-09 18:29N 40°41' W 074°09'0 0.0
2017-Dec-09 17:59N 40°41' W 074°09'0 0.0
2017-Dec-09 17:23N 40°41' W 074°09'0 0.0
2017-Dec-09 16:59N 40°41' W 074°09'0 0.0
2017-Dec-09 16:29N 40°41' W 074°09'0 0.0
2017-Dec-09 15:59N 40°41' W 074°09'0 0.0
2017-Dec-09 15:29N 40°41' W 074°09'0 0.0
2017-Dec-09 14:59N 40°41' W 074°09'0 0.0
2017-Dec-09 14:23N 40°41' W 074°09'0 0.0
2017-Dec-09 14:00N 40°41' W 074°09'0 0.0
2017-Dec-09 13:28N 40°41' W 074°09'0 0.0
2017-Dec-09 12:58N 40°41' W 074°09'0 0.0
2017-Dec-09 12:25N 40°41' W 074°09'0 0.0
2017-Dec-09 11:55N 40°41' W 074°09'0 0.0
2017-Dec-09 11:28N 40°41' W 074°09'0 0.0
2017-Dec-09 10:58N 40°41' W 074°09'0 0.0
2017-Dec-09 10:28N 40°41' W 074°09'0 0.0
2017-Dec-09 09:58N 40°41' W 074°09'0 0.0
2017-Dec-09 09:28N 40°41' W 074°09'0 0.0
2017-Dec-09 08:58N 40°41' W 074°09'0 0.0
2017-Dec-09 08:28N 40°41' W 074°09'0 0.0
2017-Dec-09 07:58N 40°41' W 074°09'0 0.0
2017-Dec-09 07:28N 40°41' W 074°09'0 0.0
2017-Dec-09 06:58N 40°41' W 074°09'0 0.4
2017-Dec-09 06:30N 40°41' W 074°08'2 4.0
2017-Dec-09 06:00N 40°39' W 074°09'2 4.4
2017-Dec-09 05:31N 40°39' W 074°06'3 5.6
2017-Dec-09 05:00N 40°37' W 074°03'3 6.7
2017-Dec-09 04:30N 40°34' W 074°02'4 6.7
2017-Dec-09 03:58N 40°31' W 073°59'5 9.8
2017-Dec-09 03:29N 40°29' W 073°54'5 9.4
2017-Dec-09 03:00N 40°27' W 073°48'  

Dump ship's entire track history